Airfield :
LOGIN :

Register | Disclaimer

   EN    FR    IT 

 










Legend :    VFR   Marginal VFR   IFR   Intensive IFR   Very Intensive IFR
Visi :
Ceiling :
>= 8 km
>= 3000ft
5 to 8 km
1000 to 3000 ft
1500m to 5 km
500 to 1000 ft
800 to 1500m
200 to 500 ft
< 800m
< 200 ft
Symbols :   Thunderstorms  Fog  Heavy snow  Heavy precipitations  Wind > 20 kt
SIGMETs :     Misc.  Thunderstorms  Icing  Turbulence  Mountain Waves  Volcanic Ashes







- Airport Elevation : 3 ft
- IATA code : LWR


EHLW - Leuuwarden Air Base

CURRENT METAR :
  • 220655Z AUTO 33008KT 9999 FEW033 SCT041 10/07 Q1030 BLU 35010KT 9999 FEW022 SCT035

EXPIRED METARs :
  • 220625Z AUTO 34008KT 310V010 9999 BKN030 OVC035 11/08 Q1030 BLU 35010KT 9999 FEW022 SCT035
  • 220555Z AUTO 35008KT 9999 FEW034 BKN041 11/08 Q1029 BLU 35010KT 9999 FEW022 SCT035
  • 220539Z AUTO 35008KT 9999 FEW023 SCT026 BKN029 11/09 Q1029 BLU 35010KT 9999 FEW022 SCT035
  • 220525Z AUTO 34006KT 9999 SCT042 09/08 Q1029 BLU
  • 220516Z AUTO 34007KT 9999 FEW020 SCT030 OVC041 10/09 Q1029 BLU
  • 220505Z AUTO 34006KT 9999 SCT020 SCT034 BKN040 08/07 Q1028 WHT
  • 220455Z AUTO 34006KT 290V360 9999 FEW043 08/07 Q1028 BLU
  • 220425Z AUTO 35006KT 310V010 9999 FEW038 10/08 Q1028 BLU

TAF TAF EHLW
Valid from the 22 at 05:00 until the 22 at 17:00 UTC


220413Z 2205/2217 34010KT 9999 FEW020 SCT035
No reported NOTAMs for that airfield.



MET'MAP, your aeronautical weather chart ! - Copyright ORBIFLY December 2007 - Disclaimer

ORBIFLY MET'MAP TEAM :

Programming & Development : Alexandra Zaïnal
Concept & Development : Baudouin d'Aumeries
Co-Development & Prog : Marc-Olivier Méhu
Technical & hardware support : Manuel Goepfert

Contact : metmap@orbifly.com




SOURCES & CREDITS :

   NOAA